Time;durP1;ratioP1;P1;durP2;ratioP2;P2;SDS_P1;SDS_P2;PMS_P1;PMS_P2;Temp;Humidity;BMP_temperature;BMP_pressure;BME280_temperature;BME280_humidity;BME280_pressure;Samples;Min_cycle;Max_cycle;Signal;HPM_P1;HPM_P2
2023/01/26 00:01:33;;;;;;;22.40;10.80;;;;;;;-141.97;100.00;47924.66;5093965;28;20693;-83
2023/01/26 00:03:58;;;;;;;24.90;11.03;;;;;;;-141.97;100.00;47861.22;5093772;28;20167;-83
2023/01/26 00:06:25;;;;;;;24.90;11.13;;;;;;;-141.97;100.00;47855.44;5093783;28;20602;-83
2023/01/26 00:08:52;;;;;;;21.43;10.33;;;;;;;-141.97;100.00;47780.47;5093852;28;20206;-83
2023/01/26 00:11:25;;;;;;;24.40;10.47;;;;;;;-141.97;100.00;47876.59;5093673;28;20409;-82
2023/01/26 00:13:51;;;;;;;29.17;11.93;;;;;;;-141.97;100.00;47909.28;5093439;28;20408;-83
2023/01/26 00:16:17;;;;;;;30.63;10.90;;;;;;;-141.97;100.00;47913.13;5089427;28;21100;-83
2023/01/26 00:18:43;;;;;;;33.07;12.27;;;;;;;-141.97;100.00;47874.69;5073804;28;20192;-82
2023/01/26 00:21:19;;;;;;;22.50;10.73;;;;;;;-141.97;100.00;47878.53;5073340;28;20165;-82
2023/01/26 00:23:45;;;;;;;23.80;11.03;;;;;;;-141.97;100.00;47895.81;5073606;28;20163;-83
2023/01/26 00:26:17;;;;;;;25.50;11.13;;;;;;;-141.97;100.00;47880.44;5086245;28;20410;-83
2023/01/26 00:28:42;;;;;;;25.00;11.60;;;;;;;-141.97;100.00;47872.75;5094032;28;20471;-83
2023/01/26 00:31:12;;;;;;;25.17;11.27;;;;;;;-141.97;100.00;47884.28;5083228;28;20409;-83
2023/01/26 00:33:38;;;;;;;27.90;11.77;;;;;;;-141.97;100.00;47941.94;5074845;28;20207;-83
2023/01/26 00:36:04;;;;;;;27.03;12.20;;;;;;;-141.97;100.00;47926.56;5073778;28;20486;-83
2023/01/26 00:38:29;;;;;;;28.37;13.27;;;;;;;-141.97;100.00;47838.16;5073170;28;20180;-84
2023/01/26 00:40:55;;;;;;;25.40;11.47;;;;;;;-141.97;100.00;47886.22;5073506;28;20788;-83
2023/01/26 00:43:20;;;;;;;24.30;11.30;;;;;;;-141.97;100.00;47895.81;5072897;28;20173;-83
2023/01/26 00:45:46;;;;;;;21.93;10.80;;;;;;;-141.97;100.00;47863.13;5073067;28;20232;-84
2023/01/26 00:48:11;;;;;;;29.43;10.77;;;;;;;-141.97;100.00;47799.72;5082747;28;20169;-83
2023/01/26 00:50:37;;;;;;;22.40;10.43;;;;;;;-141.97;100.00;47899.66;5083643;28;20196;-83
2023/01/26 00:53:02;;;;;;;22.63;10.47;;;;;;;-141.97;100.00;47905.44;5074764;28;20691;-83
2023/01/26 00:55:31;;;;;;;28.90;12.30;;;;;;;-141.97;100.00;47934.25;5074010;28;20173;-83
2023/01/26 00:58:06;;;;;;;27.87;12.07;;;;;;;-141.97;100.00;47857.38;5072763;28;20280;-83
2023/01/26 01:00:34;;;;;;;23.47;10.63;;;;;;;-141.97;100.00;47857.38;5072737;28;20486;-83
2023/01/26 01:03:01;;;;;;;23.17;10.67;;;;;;;-141.97;100.00;47861.22;5072511;28;20410;-83
2023/01/26 01:05:28;;;;;;;25.93;12.10;;;;;;;-141.97;100.00;47866.97;5072811;28;20770;-83
2023/01/26 01:07:54;;;;;;;22.23;10.13;;;;;;;-141.97;100.00;47874.69;5072745;28;20442;-83
2023/01/26 01:10:20;;;;;;;23.67;10.67;;;;;;;-141.97;100.00;47882.38;5073159;28;20395;-83
2023/01/26 01:12:45;;;;;;;23.83;10.20;;;;;;;-141.97;100.00;47872.75;5071238;28;20176;-83
2023/01/26 01:15:11;;;;;;;22.33;9.97;;;;;;;-141.97;100.00;47880.44;5088023;28;20263;-84
2023/01/26 01:17:37;;;;;;;25.97;11.80;;;;;;;-141.97;100.00;47834.31;5072347;28;20283;-84
2023/01/26 01:20:04;;;;;;;33.40;14.70;;;;;;;-141.97;100.00;47838.16;5072073;28;20293;-83
2023/01/26 01:22:30;;;;;;;44.33;18.40;;;;;;;-141.97;100.00;47872.75;5072148;28;20165;-84
2023/01/26 01:24:56;;;;;;;42.67;18.97;;;;;;;-141.97;100.00;47888.13;5071252;28;20946;-84
2023/01/26 01:27:21;;;;;;;34.03;15.33;;;;;;;-141.97;100.00;47878.53;5072552;28;20165;-83
2023/01/26 01:29:49;;;;;;;32.37;13.80;;;;;;;-141.97;100.00;47884.28;5072315;28;20168;-83
2023/01/26 01:32:14;;;;;;;43.50;18.67;;;;;;;-141.97;100.00;47938.09;5072031;28;20177;-84
2023/01/26 01:34:39;;;;;;;96.10;38.07;;;;;;;-141.97;100.00;47886.22;5071968;28;21167;-83
2023/01/26 01:37:05;;;;;;;58.70;26.67;;;;;;;-141.97;100.00;47995.78;5071525;28;20215;-83
2023/01/26 01:39:30;;;;;;;39.17;17.40;;;;;;;-141.97;100.00;47880.44;5071880;28;20230;-84
2023/01/26 01:41:56;;;;;;;27.93;13.20;;;;;;;-141.97;100.00;47988.09;5071947;28;20647;-83
2023/01/26 01:44:24;;;;;;;23.13;11.10;;;;;;;-141.97;100.00;47899.66;5071804;28;20220;-84
2023/01/26 01:47:06;;;;;;;26.67;11.80;;;;;;;-141.97;100.00;47888.13;5071793;28;20695;-83
2023/01/26 01:49:45;;;;;;;52.50;22.40;;;;;;;-141.97;100.00;47824.69;5082555;28;20421;-84
2023/01/26 01:52:25;;;;;;;29.83;14.73;;;;;;;-141.97;100.00;47897.75;5091773;28;20421;-83
2023/01/26 01:55:07;;;;;;;25.60;12.13;;;;;;;-141.97;100.00;47876.59;5092576;28;20509;-84
2023/01/26 01:57:46;;;;;;;23.13;11.10;;;;;;;-141.97;100.00;47986.16;5091972;28;20552;-84
2023/01/26 02:00:15;;;;;;;24.57;11.67;;;;;;;-141.97;100.00;47899.66;5091745;28;20500;-83
2023/01/26 02:02:43;;;;;;;24.67;11.80;;;;;;;-141.97;100.00;47857.38;5091943;28;20505;-84
2023/01/26 02:05:28;;;;;;;23.60;10.97;;;;;;;-141.97;100.00;47880.44;5092010;28;20448;-83
2023/01/26 02:07:54;;;;;;;24.57;10.47;;;;;;;-141.97;100.00;47882.38;5092289;28;20406;-83
2023/01/26 02:10:20;;;;;;;23.00;9.77;;;;;;;-141.97;100.00;47861.22;5092085;28;20938;-83
2023/01/26 02:12:54;;;;;;;24.50;10.23;;;;;;;-141.97;100.00;47851.59;5091661;28;20402;-83
2023/01/26 02:15:19;;;;;;;27.93;11.73;;;;;;;-141.97;100.00;47866.97;5092689;28;20390;-84
2023/01/26 02:17:45;;;;;;;31.70;15.10;;;;;;;-141.97;100.00;47953.50;5091218;28;20476;-83
2023/01/26 02:20:25;;;;;;;31.53;15.10;;;;;;;-141.97;100.00;47857.38;5091873;28;20168;-84
2023/01/26 02:23:14;;;;;;;35.00;16.23;;;;;;;-141.97;100.00;47874.69;5091568;28;20318;-83
2023/01/26 02:25:46;;;;;;;33.70;15.30;;;;;;;-141.97;100.00;47861.22;5092428;28;20926;-84
2023/01/26 02:28:12;;;;;;;29.03;13.87;;;;;;;-141.97;100.00;47957.34;5092385;28;20913;-85
2023/01/26 02:30:37;;;;;;;29.30;13.83;;;;;;;-141.97;100.00;47790.09;5092639;28;20421;-84
2023/01/26 02:33:03;;;;;;;30.73;15.17;;;;;;;-141.97;100.00;47857.38;5091350;28;20168;-84
2023/01/26 02:35:28;;;;;;;33.17;14.57;;;;;;;-141.97;100.00;47849.69;5091856;28;20163;-84
2023/01/26 02:37:54;;;;;;;26.10;13.40;;;;;;;-141.97;100.00;47884.28;5092058;28;20279;-84
2023/01/26 02:40:37;;;;;;;26.50;13.00;;;;;;;-141.97;100.00;47853.53;5091807;28;20548;-84
2023/01/26 02:43:03;;;;;;;25.97;12.20;;;;;;;-141.97;100.00;47882.38;5090943;28;20547;-84
2023/01/26 02:45:30;;;;;;;25.70;11.97;;;;;;;-141.97;100.00;47878.53;5091508;28;20576;-84
2023/01/26 02:47:56;;;;;;;26.90;12.73;;;;;;;-141.97;100.00;47903.50;5091301;28;20164;-84
2023/01/26 02:50:22;;;;;;;28.57;11.67;;;;;;;-141.97;100.00;47907.34;5091297;28;20398;-84
2023/01/26 02:52:47;;;;;;;29.63;12.77;;;;;;;-141.97;100.00;47866.97;5090727;28;20406;-82
2023/01/26 02:55:23;;;;;;;28.30;12.67;;;;;;;-141.97;100.00;47880.44;5091296;28;20165;-85
2023/01/26 02:57:52;;;;;;;29.97;13.30;;;;;;;-141.97;100.00;47847.75;5072344;28;20587;-82
2023/01/26 03:00:19;;;;;;;27.03;11.93;;;;;;;-141.97;100.00;47853.53;5072943;28;20406;-83
2023/01/26 03:02:47;;;;;;;30.67;13.80;;;;;;;-141.97;100.00;47895.81;5095610;28;20402;-82
2023/01/26 03:05:12;;;;;;;29.23;13.50;;;;;;;-141.97;100.00;47851.59;5094894;28;20405;-82
2023/01/26 03:07:38;;;;;;;32.30;14.03;;;;;;;-141.97;100.00;47899.66;5094763;28;20409;-82
2023/01/26 03:10:04;;;;;;;31.43;13.80;;;;;;;-141.97;100.00;47828.53;5095136;28;20175;-83
2023/01/26 03:12:30;;;;;;;33.53;13.50;;;;;;;-141.97;100.00;47876.59;5095188;28;20196;-83
2023/01/26 03:17:39;;;;;;;28.27;13.37;;;;;;;-141.97;100.00;47857.38;5095831;28;20229;-83
2023/01/26 03:27:25;;;;;;;29.17;13.03;;;;;;;-141.97;100.00;47884.28;5119256;28;20195;-82
2023/01/26 03:28:22;;;;;;;30.40;13.30;;;;;;;-141.97;100.00;47893.91;5113922;28;20440;-83
2023/01/26 03:30:48;;;;;;;27.33;12.67;;;;;;;-141.97;100.00;47842.00;5102012;28;20414;-83
2023/01/26 03:33:15;;;;;;;29.67;13.10;;;;;;;-141.97;100.00;47888.13;5099861;28;20172;-83
2023/01/26 03:35:41;;;;;;;28.80;13.20;;;;;;;-141.97;100.00;47849.69;5097012;28;20497;-82
2023/01/26 03:38:06;;;;;;;30.03;13.43;;;;;;;-141.97;100.00;47868.91;5103903;28;20487;-83
2023/01/26 03:57:00;;;;;;;64.03;24.30;;;;;;;-141.97;100.00;47895.81;5094394;28;20488;-83
2023/01/26 03:59:37;;;;;;;37.77;16.57;;;;;;;-141.97;100.00;47888.13;5076037;28;20434;-83
2023/01/26 04:10:21;;;;;;;42.73;17.93;;;;;;;-141.97;100.00;47861.22;5094043;28;21018;-83
2023/01/26 04:23:47;;;;;;;32.70;14.53;;;;;;;-141.97;100.00;47880.44;5093673;28;20401;-84
2023/01/26 04:26:13;;;;;;;29.67;14.50;;;;;;;-141.97;100.00;47899.66;5093527;28;20807;-83
2023/01/26 04:28:38;;;;;;;34.37;15.73;;;;;;;-141.97;100.00;47897.75;5093293;28;20171;-83
2023/01/26 04:31:04;;;;;;;43.60;18.00;;;;;;;-141.97;100.00;47866.97;5094172;28;20221;-85
2023/01/26 04:33:30;;;;;;;41.57;17.43;;;;;;;-141.97;100.00;47880.44;5076127;28;20193;-85
2023/01/26 04:35:55;;;;;;;36.57;17.40;;;;;;;-141.97;100.00;47865.06;5095510;28;20243;-85
2023/01/26 04:38:21;;;;;;;37.77;17.63;;;;;;;-141.97;100.00;47868.91;5077473;28;20632;-84
2023/01/26 04:40:53;;;;;;;35.63;16.90;;;;;;;-141.97;100.00;47899.66;5095419;28;20250;-85
2023/01/26 04:43:19;;;;;;;33.13;16.53;;;;;;;-141.97;100.00;47840.06;5077554;28;20175;-85
2023/01/26 04:45:44;;;;;;;29.10;14.73;;;;;;;-141.97;100.00;47899.66;5095133;28;20462;-85
2023/01/26 04:48:09;;;;;;;29.77;15.40;;;;;;;-141.97;100.00;47880.44;5096391;28;20236;-84
2023/01/26 04:50:35;;;;;;;33.07;15.13;;;;;;;-141.97;100.00;47849.69;5096127;28;20190;-85
2023/01/26 04:53:01;;;;;;;35.93;15.80;;;;;;;-141.97;100.00;47784.34;5096109;28;20588;-84
2023/01/26 04:55:26;;;;;;;36.53;16.90;;;;;;;-141.97;100.00;47890.06;5096463;28;20171;-83
2023/01/26 04:57:51;;;;;;;36.73;17.70;;;;;;;-141.97;100.00;47849.69;5075889;28;20211;-85
2023/01/26 05:00:17;;;;;;;37.77;18.90;;;;;;;-141.97;100.00;47888.13;5093232;28;20172;-84
2023/01/26 05:02:42;;;;;;;38.73;18.30;;;;;;;-141.97;100.00;47880.44;5094552;28;20172;-84
2023/01/26 05:05:08;;;;;;;38.93;18.23;;;;;;;-141.97;100.00;47861.22;5095971;28;20172;-84
2023/01/26 05:07:33;;;;;;;28.57;13.77;;;;;;;-141.97;100.00;47834.31;5094223;28;20274;-83
2023/01/26 05:09:59;;;;;;;35.10;16.07;;;;;;;-141.97;100.00;47780.47;5092692;28;20667;-83
2023/01/26 05:12:33;;;;;;;23.13;11.27;;;;;;;-141.97;100.00;47865.06;5093830;28;20179;-83
2023/01/26 05:14:59;;;;;;;33.77;15.53;;;;;;;-141.97;100.00;47934.25;5093099;28;20204;-83
2023/01/26 05:17:24;;;;;;;25.20;11.60;;;;;;;-141.97;100.00;47928.50;5092569;28;20892;-85
2023/01/26 05:19:49;;;;;;;33.13;15.27;;;;;;;-141.97;100.00;47868.91;5074232;28;20179;-84
2023/01/26 05:22:15;;;;;;;24.30;11.63;;;;;;;-141.97;100.00;47880.44;5092119;28;20174;-83
2023/01/26 05:24:40;;;;;;;29.10;13.97;;;;;;;-141.97;100.00;47915.03;5092922;28;20164;-83
2023/01/26 05:27:24;;;;;;;23.90;12.07;;;;;;;-141.97;100.00;47878.53;5092317;28;20187;-83
2023/01/26 05:29:50;;;;;;;29.80;13.93;;;;;;;-141.97;100.00;47884.28;5074862;28;20169;-84
2023/01/26 05:32:16;;;;;;;27.40;12.53;;;;;;;-141.97;100.00;47888.13;5094089;28;20791;-84
2023/01/26 05:34:42;;;;;;;28.97;14.17;;;;;;;-141.97;100.00;47853.53;5074575;28;20893;-83
2023/01/26 05:37:07;;;;;;;24.37;11.17;;;;;;;-141.97;100.00;47826.63;5092321;28;20187;-83
2023/01/26 05:39:32;;;;;;;26.20;12.70;;;;;;;-141.97;100.00;47826.63;5092019;28;20295;-84
2023/01/26 05:41:58;;;;;;;33.47;16.73;;;;;;;-141.97;100.00;47845.84;5094521;28;20168;-85
2023/01/26 05:44:23;;;;;;;25.57;13.33;;;;;;;-141.97;100.00;47761.25;5079139;28;20222;-84
2023/01/26 05:46:50;;;;;;;22.97;11.77;;;;;;;-141.97;100.00;47742.03;5094467;28;20172;-84
2023/01/26 05:49:15;;;;;;;20.80;9.87;;;;;;;-141.97;100.00;47866.97;5094821;28;20174;-84
2023/01/26 05:51:41;;;;;;;23.93;11.70;;;;;;;-141.97;100.00;47880.44;5100329;28;20521;-82
2023/01/26 05:54:06;;;;;;;24.73;11.67;;;;;;;-141.97;100.00;47899.66;5113057;28;20174;-83
2023/01/26 05:56:32;;;;;;;25.93;12.57;;;;;;;-141.97;100.00;47905.44;5093913;28;20198;-85
2023/01/26 05:58:57;;;;;;;33.03;16.53;;;;;;;-141.97;100.00;47843.91;5092668;28;20233;-83
2023/01/26 06:01:25;;;;;;;32.07;15.10;;;;;;;-141.97;100.00;47872.75;5092122;28;20168;-84
2023/01/26 06:03:50;;;;;;;23.63;12.40;;;;;;;-141.97;100.00;47890.06;5072556;28;20674;-85
2023/01/26 06:06:18;;;;;;;28.00;13.93;;;;;;;-141.97;100.00;47842.00;5090716;28;20468;-83
2023/01/26 06:08:44;;;;;;;28.33;12.50;;;;;;;-141.97;100.00;47911.19;5092278;28;20213;-83
2023/01/26 06:11:09;;;;;;;28.83;12.60;;;;;;;-141.97;100.00;47834.31;5090951;28;20414;-86
2023/01/26 06:13:35;;;;;;;31.10;14.10;;;;;;;-141.97;100.00;47843.91;5092040;28;20159;-84
2023/01/26 06:16:01;;;;;;;31.83;13.77;;;;;;;-141.97;100.00;47853.53;5082435;28;20183;-83
2023/01/26 06:18:26;;;;;;;28.93;13.73;;;;;;;-141.97;100.00;47888.13;5112168;28;20238;-85
2023/01/26 06:20:52;;;;;;;31.60;15.77;;;;;;;-141.97;100.00;47843.91;5103507;28;20792;-84
2023/01/26 06:23:17;;;;;;;43.90;22.67;;;;;;;-141.97;100.00;47849.69;5094978;28;20552;-84
2023/01/26 06:25:43;;;;;;;45.57;19.90;;;;;;;-141.97;100.00;47901.59;5091537;28;20168;-83
2023/01/26 06:28:10;;;;;;;36.93;17.97;;;;;;;-141.97;100.00;47865.06;5091428;28;20629;-83
2023/01/26 06:30:36;;;;;;;40.53;20.03;;;;;;;-141.97;100.00;47907.34;5091072;28;20164;-83
2023/01/26 06:33:02;;;;;;;43.07;19.10;;;;;;;-141.97;100.00;47880.44;5091508;28;20417;-84
2023/01/26 06:35:27;;;;;;;38.33;19.10;;;;;;;-141.97;100.00;47803.56;5092683;28;20193;-85
2023/01/26 06:37:55;;;;;;;45.93;21.40;;;;;;;-141.97;100.00;47901.59;5095571;28;20656;-83
2023/01/26 06:40:20;;;;;;;44.07;23.00;;;;;;;-141.97;100.00;47880.44;5095726;28;20189;-85
2023/01/26 06:42:49;;;;;;;38.73;20.37;;;;;;;-141.97;100.00;47838.16;5079272;28;20803;-86
2023/01/26 06:45:16;;;;;;;43.00;22.20;;;;;;;-141.97;100.00;47949.66;5098801;28;20212;-85
2023/01/26 06:47:45;;;;;;;43.20;22.57;;;;;;;-141.97;100.00;47947.72;5079075;28;20410;-85
2023/01/26 06:50:11;;;;;;;37.13;17.80;;;;;;;-141.97;100.00;47847.75;5096088;28;20842;-84
2023/01/26 06:52:40;;;;;;;33.53;17.33;;;;;;;-141.97;100.00;47903.50;5095287;28;20412;-84
2023/01/26 06:55:19;;;;;;;35.63;17.90;;;;;;;-141.97;100.00;47899.66;5094509;28;20199;-83
2023/01/26 06:57:47;;;;;;;34.73;16.07;;;;;;;-141.97;100.00;47849.69;5078741;28;20507;-85
2023/01/26 07:00:12;;;;;;;33.50;16.53;;;;;;;-141.97;100.00;47842.00;5098663;28;20982;-85
2023/01/26 07:02:39;;;;;;;34.53;18.17;;;;;;;-141.97;100.00;47884.28;5088423;28;20537;-84
2023/01/26 07:05:05;;;;;;;44.20;21.87;;;;;;;-141.97;100.00;47859.28;5064949;28;20225;-84
2023/01/26 07:07:37;;;;;;;58.30;29.93;;;;;;;-141.97;100.00;47888.13;5090243;28;20420;-85
2023/01/26 07:10:05;;;;;;;39.37;20.17;;;;;;;-141.97;100.00;47899.66;5076536;28;20624;-84
2023/01/26 07:12:45;;;;;;;37.30;18.47;;;;;;;-141.97;100.00;47857.38;5095163;28;20416;-84
2023/01/26 07:15:12;;;;;;;39.17;18.40;;;;;;;-141.97;100.00;47878.53;5071360;28;20457;-87
2023/01/26 07:17:38;;;;;;;44.67;19.87;;;;;;;-141.97;100.00;47888.13;5084256;28;20469;-85
2023/01/26 07:20:04;;;;;;;42.13;18.33;;;;;;;-141.97;100.00;47880.44;5088805;28;20430;-84
2023/01/26 07:22:29;;;;;;;53.23;26.73;;;;;;;-141.97;100.00;47941.94;5094494;28;20510;-84
2023/01/26 07:24:55;;;;;;;37.77;16.33;;;;;;;-141.97;100.00;47828.53;5094712;28;20660;-86
2023/01/26 07:27:20;;;;;;;31.17;14.97;;;;;;;-141.97;100.00;47913.13;5076213;28;20178;-85
2023/01/26 07:29:46;;;;;;;33.70;14.97;;;;;;;-141.97;100.00;47865.06;5108114;28;20166;-83
2023/01/26 07:32:11;;;;;;;28.33;14.03;;;;;;;-141.97;100.00;47895.81;5115075;28;20172;-83
2023/01/26 07:34:37;;;;;;;33.17;15.57;;;;;;;-141.97;100.00;47988.09;5117938;28;20175;-84
2023/01/26 07:37:03;;;;;;;27.93;14.00;;;;;;;-141.97;100.00;47936.19;5103007;28;20226;-84
2023/01/26 07:39:29;;;;;;;27.23;13.90;;;;;;;-141.97;100.00;47757.41;5094250;28;20191;-83
2023/01/26 07:41:55;;;;;;;28.83;14.17;;;;;;;-141.97;100.00;47903.50;5076024;28;20411;-83
2023/01/26 07:44:20;;;;;;;30.77;14.10;;;;;;;-141.97;100.00;47849.69;5074956;28;20228;-83
2023/01/26 07:46:45;;;;;;;30.00;14.80;;;;;;;-141.97;100.00;47880.44;5075874;28;20188;-83
2023/01/26 07:49:13;;;;;;;42.67;19.33;;;;;;;-141.97;100.00;47870.81;5089037;28;20184;-85
2023/01/26 07:51:38;;;;;;;29.43;14.23;;;;;;;-141.97;100.00;47857.38;5088887;28;20181;-84
2023/01/26 07:54:05;;;;;;;27.17;13.77;;;;;;;-141.97;100.00;47811.25;5094226;28;20482;-85
2023/01/26 07:56:32;;;;;;;24.20;11.40;;;;;;;-141.97;100.00;47834.31;5106856;28;20184;-85
2023/01/26 07:58:59;;;;;;;21.07;10.80;;;;;;;-141.97;100.00;47876.59;5095499;28;20402;-84
2023/01/26 08:01:24;;;;;;;22.63;10.63;;;;;;;-141.97;100.00;47941.94;5075852;28;20408;-84
2023/01/26 08:03:52;;;;;;;19.90;10.00;;;;;;;-141.97;100.00;47909.28;5093889;28;20924;-85
2023/01/26 08:06:20;;;;;;;24.20;12.43;;;;;;;-141.97;100.00;47865.06;5094291;28;20168;-85
2023/01/26 08:08:54;;;;;;;27.60;13.50;;;;;;;-141.97;100.00;47899.66;5093547;28;20413;-85
2023/01/26 08:11:23;;;;;;;23.90;11.23;;;;;;;-141.97;100.00;47834.31;5094613;28;20489;-86
2023/01/26 08:13:48;;;;;;;20.73;9.83;;;;;;;-141.97;100.00;47868.91;5072132;28;20995;-83
2023/01/26 08:16:18;;;;;;;27.27;13.73;;;;;;;-141.97;100.00;47936.19;5072781;28;20572;-84
2023/01/26 08:18:45;;;;;;;25.70;12.20;;;;;;;-141.97;100.00;47886.22;5067127;28;20168;-83
2023/01/26 08:21:15;;;;;;;24.10;11.50;;;;;;;-141.97;100.00;47888.13;5102364;28;20442;-83
2023/01/26 08:23:40;;;;;;;24.03;11.20;;;;;;;-141.97;100.00;47884.28;5116055;28;20738;-84
2023/01/26 08:26:09;;;;;;;24.00;11.47;;;;;;;-141.97;100.00;47901.59;5093532;28;20807;-83
2023/01/26 08:28:34;;;;;;;26.30;13.60;;;;;;;-141.97;100.00;47965.03;5093599;28;20174;-83
2023/01/26 08:31:10;;;;;;;26.27;12.83;;;;;;;-141.97;100.00;47849.69;5092772;28;20502;-83
2023/01/26 08:33:37;;;;;;;24.17;10.60;;;;;;;-141.97;100.00;47947.72;5092852;28;20191;-84
2023/01/26 08:36:05;;;;;;;24.50;11.63;;;;;;;-141.97;100.00;47915.03;5092848;28;20421;-84
2023/01/26 08:38:32;;;;;;;31.93;15.47;;;;;;;-141.97;100.00;47897.75;5094608;28;20455;-85
2023/01/26 08:41:03;;;;;;;362.23;113.37;;;;;;;-141.97;100.00;47890.06;5074010;28;20929;-84
2023/01/26 08:43:29;;;;;;;95.03;34.60;;;;;;;-141.97;100.00;47799.72;5092485;28;20454;-85
2023/01/26 08:45:54;;;;;;;39.60;18.17;;;;;;;-141.97;100.00;47924.66;5074338;28;20560;-84
2023/01/26 08:48:20;;;;;;;95.47;37.80;;;;;;;-141.97;100.00;47890.06;5092768;28;20180;-83
2023/01/26 08:50:45;;;;;;;133.60;50.77;;;;;;;-141.97;100.00;47872.75;5092810;28;20172;-83
2023/01/26 08:53:11;;;;;;;44.17;21.50;;;;;;;-141.97;100.00;47811.25;5091691;28;20168;-84
2023/01/26 08:55:36;;;;;;;99.37;30.30;;;;;;;-141.97;100.00;47776.63;5092832;28;20163;-84
2023/01/26 08:58:02;;;;;;;28.77;13.57;;;;;;;-141.97;100.00;47726.66;5092411;28;20297;-83
2023/01/26 09:00:33;;;;;;;181.97;58.60;;;;;;;-141.97;100.00;47934.25;5091808;28;20252;-83
2023/01/26 09:03:06;;;;;;;225.97;83.87;;;;;;;-141.97;100.00;47915.03;5093511;28;20196;-83
2023/01/26 09:05:35;;;;;;;110.07;33.20;;;;;;;-141.97;100.00;47849.69;5094072;28;20410;-83
2023/01/26 09:08:00;;;;;;;87.97;33.43;;;;;;;-141.97;100.00;47811.25;5092048;28;20410;-83
2023/01/26 09:10:26;;;;;;;37.50;16.83;;;;;;;-141.97;100.00;47830.47;5093538;28;20463;-83
2023/01/26 09:12:52;;;;;;;40.10;17.90;;;;;;;-141.97;100.00;47822.78;5086316;28;20172;-84
2023/01/26 09:15:25;;;;;;;40.47;18.33;;;;;;;-141.97;100.00;47770.88;5076016;28;20523;-83
2023/01/26 09:17:50;;;;;;;200.27;79.33;;;;;;;-141.97;100.00;47849.69;5075308;28;20265;-83
2023/01/26 09:20:16;;;;;;;33.33;15.60;;;;;;;-141.97;100.00;47884.28;5072720;28;20415;-83
2023/01/26 09:22:44;;;;;;;210.03;59.27;;;;;;;-141.97;100.00;47907.34;5077271;28;20187;-83
2023/01/26 09:25:12;;;;;;;105.87;31.67;;;;;;;-141.97;100.00;47851.59;5071221;28;20551;-84
2023/01/26 09:27:38;;;;;;;168.13;49.60;;;;;;;-141.97;100.00;47842.00;5072182;28;20412;-82
2023/01/26 09:30:06;;;;;;;351.27;101.73;;;;;;;-141.97;100.00;47870.81;5071560;28;20435;-84
2023/01/26 09:32:34;;;;;;;212.20;53.40;;;;;;;-141.97;100.00;47941.94;5070632;28;20667;-83
2023/01/26 09:34:59;;;;;;;74.63;30.03;;;;;;;-141.97;100.00;47872.75;5071738;28;20517;-84
2023/01/26 09:37:25;;;;;;;117.43;35.50;;;;;;;-141.97;100.00;47843.91;5070657;28;20450;-83
2023/01/26 09:39:50;;;;;;;44.77;21.23;;;;;;;-141.97;100.00;47880.44;5071855;28;20169;-83
2023/01/26 09:42:34;;;;;;;44.07;18.67;;;;;;;-141.97;100.00;47888.13;5071149;28;20238;-83
2023/01/26 09:45:25;;;;;;;50.60;22.17;;;;;;;-141.97;100.00;47918.88;5071303;28;20251;-84
2023/01/26 09:48:24;;;;;;;50.70;24.20;;;;;;;-141.97;100.00;47918.88;5071800;28;21135;-84
2023/01/26 09:51:07;;;;;;;75.53;27.90;;;;;;;-141.97;100.00;47907.34;5071664;28;20415;-84
2023/01/26 09:53:46;;;;;;;46.80;22.87;;;;;;;-141.97;100.00;47872.75;5071590;28;20484;-84
2023/01/26 09:56:18;;;;;;;47.33;22.13;;;;;;;-141.97;100.00;47863.13;5071149;28;20415;-83
2023/01/26 09:58:50;;;;;;;50.27;23.57;;;;;;;-141.97;100.00;47984.25;5075846;28;20403;-84
2023/01/26 10:02:14;;;;;;;60.50;23.87;;;;;;;-141.97;100.00;47888.13;5074999;28;20421;-82
2023/01/26 10:05:01;;;;;;;48.87;22.30;;;;;;;-141.97;100.00;47903.50;5008450;28;20430;-82
2023/01/26 10:07:34;;;;;;;45.17;21.10;;;;;;;-141.97;100.00;47865.06;5010969;28;20410;-83
2023/01/26 10:10:05;;;;;;;46.43;19.47;;;;;;;-141.97;100.00;47857.38;5009189;28;20428;-82
2023/01/26 10:12:35;;;;;;;36.63;18.20;;;;;;;-141.97;100.00;47838.16;4996782;28;20867;-82
2023/01/26 10:15:26;;;;;;;40.20;18.37;;;;;;;-141.97;100.00;47857.38;5011575;28;20410;-84
2023/01/26 10:17:53;;;;;;;50.47;22.77;;;;;;;-141.97;100.00;47911.19;5009292;28;20496;-82
2023/01/26 10:20:37;;;;;;;266.30;79.87;;;;;;;-141.97;100.00;47922.72;5009716;28;20471;-83
2023/01/26 10:23:15;;;;;;;175.10;56.50;;;;;;;-141.97;100.00;47893.91;5009610;28;20417;-83
2023/01/26 10:25:47;;;;;;;74.17;29.47;;;;;;;-141.97;100.00;47842.00;5008888;28;20437;-84
2023/01/26 10:28:15;;;;;;;49.87;21.30;;;;;;;-141.97;100.00;47845.84;5008934;28;20515;-85
2023/01/26 10:30:45;;;;;;;48.17;22.13;;;;;;;-141.97;100.00;47899.66;5008771;28;20414;-84
2023/01/26 10:33:19;;;;;;;231.03;70.27;;;;;;;-141.97;100.00;47918.88;5008623;28;20441;-83
2023/01/26 10:35:45;;;;;;;51.57;23.63;;;;;;;-141.97;100.00;47882.38;5052735;28;20473;-84
2023/01/26 10:38:46;;;;;;;61.37;28.10;;;;;;;-141.97;100.00;47897.75;5070870;28;20542;-83
2023/01/26 10:41:15;;;;;;;61.20;26.13;;;;;;;-141.97;100.00;47868.91;5009284;28;20258;-83
2023/01/26 10:43:48;;;;;;;76.13;37.70;;;;;;;-141.97;100.00;47926.56;5009889;28;20413;-83
2023/01/26 10:46:33;;;;;;;92.17;32.20;;;;;;;-141.97;100.00;47870.81;5018022;28;20439;-84
2023/01/26 10:49:17;;;;;;;45.50;19.90;;;;;;;-141.97;100.00;47899.66;5013861;28;20425;-86
2023/01/26 10:51:45;;;;;;;63.13;28.37;;;;;;;-141.97;100.00;47855.44;5009887;28;20543;-85
2023/01/26 10:54:34;;;;;;;88.70;39.27;;;;;;;-141.97;100.00;47918.88;5009981;28;20424;-82
2023/01/26 10:57:03;;;;;;;72.53;31.93;;;;;;;-141.97;100.00;47861.22;4992562;28;20528;-83
2023/01/26 10:59:59;;;;;;;60.33;24.97;;;;;;;-141.97;100.00;47907.34;5009041;28;20460;-85
2023/01/26 11:02:29;;;;;;;39.90;18.10;;;;;;;-141.97;100.00;47876.59;4988437;28;20502;-82
2023/01/26 11:05:06;;;;;;;65.07;26.77;;;;;;;-141.97;100.00;47888.13;4972861;28;20937;-83
2023/01/26 11:07:41;;;;;;;51.23;21.03;;;;;;;-141.97;100.00;47895.81;4972745;28;20982;-83
2023/01/26 11:10:30;;;;;;;81.43;38.70;;;;;;;-141.97;100.00;47882.38;4972758;28;20413;-82
2023/01/26 11:13:27;;;;;;;69.80;33.07;;;;;;;-141.97;100.00;47888.13;4980176;28;20545;-82
2023/01/26 11:16:13;;;;;;;66.97;28.23;;;;;;;-141.97;100.00;47888.13;4955010;28;21549;-82
2023/01/26 11:18:42;;;;;;;58.50;25.23;;;;;;;-141.97;100.00;47890.06;4971384;28;20510;-83
2023/01/26 11:21:19;;;;;;;50.23;21.50;;;;;;;-141.97;100.00;47868.91;4972331;28;20427;-82
2023/01/26 11:23:50;;;;;;;54.50;23.07;;;;;;;-141.97;100.00;47884.28;4975616;28;20423;-83
2023/01/26 11:26:44;;;;;;;97.50;43.00;;;;;;;-141.97;100.00;47872.75;4977077;28;20423;-83
2023/01/26 11:29:12;;;;;;;72.00;30.93;;;;;;;-141.97;100.00;47907.34;4985348;28;20435;-83
2023/01/26 11:32:23;;;;;;;62.60;27.77;;;;;;;-141.97;100.00;47907.34;4994052;28;20433;-83
2023/01/26 11:34:51;;;;;;;50.90;21.83;;;;;;;-141.97;100.00;47897.75;4959772;29;20440;-84
2023/01/26 11:37:31;;;;;;;54.90;25.90;;;;;;;-141.97;100.00;47905.44;4957758;29;20480;-84
2023/01/26 11:40:10;;;;;;;58.20;26.53;;;;;;;-141.97;100.00;47916.97;4921105;29;20466;-83
2023/01/26 11:42:53;;;;;;;55.50;26.00;;;;;;;-141.97;100.00;47880.44;4919743;29;20432;-83
2023/01/26 11:45:24;;;;;;;52.57;21.43;;;;;;;-141.97;100.00;47899.66;4917535;29;20470;-84
2023/01/26 11:48:11;;;;;;;58.93;25.47;;;;;;;-141.97;100.00;47880.44;4910312;29;20442;-84
2023/01/26 11:50:39;;;;;;;57.27;23.77;;;;;;;-141.97;100.00;47899.66;4933860;29;20422;-85